Time;durP1;ratioP1;P1;durP2;ratioP2;P2;SDS_P1;SDS_P2;PMS_P1;PMS_P2;Temp;Humidity;BMP_temperature;BMP_pressure;BME280_temperature;BME280_humidity;BME280_pressure;Samples;Min_cycle;Max_cycle;Signal;HPM_P1;HPM_P2
2022/05/26 00:01:06;;;;;;;32.95;14.55;;;13.00;99.90;;;;;;5036593;28;20127;-81
2022/05/26 00:03:33;;;;;;;43.55;14.52;;;13.00;99.90;;;;;;5038519;28;20045;-81
2022/05/26 00:06:01;;;;;;;32.80;16.15;;;13.00;99.90;;;;;;5037334;28;20564;-80
2022/05/26 00:08:27;;;;;;;29.73;14.98;;;13.00;99.90;;;;;;5038508;28;20056;-80
2022/05/26 00:10:54;;;;;;;29.75;15.35;;;13.00;99.90;;;;;;5037675;28;20076;-84
2022/05/26 00:13:20;;;;;;;29.20;14.85;;;13.10;99.90;;;;;;5038063;28;20407;-79
2022/05/26 00:15:46;;;;;;;39.72;16.83;;;13.00;99.90;;;;;;5036771;28;20045;-79
2022/05/26 00:18:11;;;;;;;43.47;18.08;;;13.00;99.90;;;;;;5038027;28;20402;-80
2022/05/26 00:20:37;;;;;;;43.90;19.08;;;13.00;99.90;;;;;;5038221;28;20057;-81
2022/05/26 00:23:03;;;;;;;45.78;18.13;;;13.00;99.90;;;;;;5038109;28;20045;-79
2022/05/26 00:25:29;;;;;;;46.88;18.55;;;13.00;99.90;;;;;;5037479;28;20124;-79
2022/05/26 00:27:55;;;;;;;51.85;20.33;;;13.00;99.90;;;;;;5036630;28;20470;-79
2022/05/26 00:30:21;;;;;;;40.42;18.33;;;13.10;99.90;;;;;;5035519;28;20049;-80
2022/05/26 00:32:47;;;;;;;35.28;18.48;;;13.10;99.90;;;;;;5033729;28;20880;-80
2022/05/26 00:35:15;;;;;;;33.30;16.02;;;13.10;99.90;;;;;;5034742;28;20045;-80
2022/05/26 00:37:42;;;;;;;46.00;19.60;;;13.10;99.90;;;;;;5033609;28;20072;-80
2022/05/26 00:40:08;;;;;;;49.65;20.08;;;13.10;99.90;;;;;;5034844;28;20044;-80
2022/05/26 00:42:34;;;;;;;45.90;20.08;;;13.10;99.90;;;;;;5034298;28;20045;-82
2022/05/26 00:45:00;;;;;;;42.20;20.70;;;13.10;99.90;;;;;;5033718;28;20045;-81
2022/05/26 00:47:29;;;;;;;46.20;19.98;;;13.10;99.90;;;;;;5032953;28;20052;-81
2022/05/26 00:50:05;;;;;;;41.47;18.65;;;13.10;99.90;;;;;;5035095;28;20143;-80
2022/05/26 00:52:45;;;;;;;44.20;19.77;;;13.10;99.90;;;;;;5013528;28;20380;-81
2022/05/26 00:55:20;;;;;;;44.60;20.33;;;13.10;99.90;;;;;;5013569;28;20064;-82
2022/05/26 00:57:53;;;;;;;50.08;20.35;;;13.10;99.90;;;;;;5030187;28;20041;-81
2022/05/26 01:00:22;;;;;;;43.17;17.83;;;13.10;99.90;;;;;;5033429;28;20107;-81
2022/05/26 01:03:03;;;;;;;44.67;20.88;;;13.10;99.90;;;;;;5033978;28;20045;-81
2022/05/26 01:05:36;;;;;;;45.88;19.40;;;13.10;99.90;;;;;;5034397;28;20091;-81
2022/05/26 01:08:02;;;;;;;41.85;18.75;;;13.00;99.90;;;;;;5017159;28;20125;-81
2022/05/26 01:10:27;;;;;;;54.97;21.67;;;12.90;99.90;;;;;;5034273;28;20116;-81
2022/05/26 01:12:55;;;;;;;40.53;20.02;;;12.90;99.90;;;;;;5032537;28;20052;-83
2022/05/26 01:15:22;;;;;;;60.85;23.85;;;13.00;99.90;;;;;;5034290;28;20037;-81
2022/05/26 01:18:26;;;;;;;43.80;20.92;;;12.90;99.90;;;;;;5016535;28;20136;-82
2022/05/26 01:21:27;;;;;;;54.65;22.27;;;12.90;99.90;;;;;;5024527;28;20057;-81
2022/05/26 01:24:25;;;;;;;48.15;20.40;;;13.00;99.90;;;;;;5033840;28;20045;-81
2022/05/26 01:27:19;;;;;;;52.67;21.30;;;12.90;99.90;;;;;;5030185;28;20061;-81
2022/05/26 01:29:57;;;;;;;51.90;21.75;;;12.90;99.90;;;;;;5030302;28;20045;-81
2022/05/26 01:32:38;;;;;;;49.08;20.10;;;12.90;99.90;;;;;;5019372;28;20767;-83
2022/05/26 01:35:22;;;;;;;;;;;12.90;99.90;;;;;;5034358;28;20049;-81
2022/05/26 01:37:57;;;;;;;42.53;20.27;;;13.00;99.90;;;;;;5032852;28;20341;-80
2022/05/26 01:40:35;;;;;;;56.25;21.67;;;12.90;99.90;;;;;;5028953;28;20054;-80
2022/05/26 01:43:24;;;;;;;50.90;20.20;;;13.00;99.90;;;;;;5027280;28;20056;-81
2022/05/26 01:46:20;;;;;;;48.70;20.30;;;13.00;99.90;;;;;;5015887;28;20056;-80
2022/05/26 01:49:06;;;;;;;49.50;20.77;;;13.00;99.90;;;;;;5032341;28;20053;-81
2022/05/26 01:51:38;;;;;;;53.97;20.30;;;13.00;99.90;;;;;;5032198;28;20057;-81
2022/05/26 01:54:21;;;;;;;49.75;20.02;;;13.00;99.90;;;;;;5032024;28;20044;-81
2022/05/26 01:57:06;;;;;;;61.03;21.63;;;13.00;99.90;;;;;;5033186;28;20045;-81
2022/05/26 01:59:55;;;;;;;60.13;21.10;;;13.00;99.90;;;;;;5032974;28;20103;-82
2022/05/26 02:02:30;;;;;;;60.38;21.55;;;13.00;99.90;;;;;;5031867;28;20085;-81
2022/05/26 02:05:01;;;;;;;50.30;19.63;;;13.00;99.90;;;;;;5032311;28;20049;-85
2022/05/26 02:07:35;;;;;;;56.72;20.52;;;13.10;99.90;;;;;;5033045;28;20044;-83
2022/05/26 02:10:08;;;;;;;52.70;20.27;;;13.10;99.90;;;;;;5031975;28;20120;-81
2022/05/26 02:12:41;;;;;;;57.00;20.50;;;13.10;99.90;;;;;;5032972;28;20396;-81
2022/05/26 02:15:16;;;;;;;52.78;19.98;;;13.30;99.90;;;;;;5031474;28;20053;-82
2022/05/26 02:17:51;;;;;;;61.05;20.52;;;13.10;99.90;;;;;;5031760;28;20085;-81
2022/05/26 02:20:24;;;;;;;49.40;17.30;;;13.10;99.90;;;;;;5032703;28;20057;-81
2022/05/26 02:22:58;;;;;;;50.08;17.52;;;13.20;99.90;;;;;;5032947;28;20056;-83
2022/05/26 02:25:26;;;;;;;51.00;18.88;;;13.20;99.90;;;;;;5032680;28;20056;-81
2022/05/26 02:27:57;;;;;;;47.30;17.67;;;13.30;99.90;;;;;;5032540;28;20100;-80
2022/05/26 02:30:30;;;;;;;43.00;17.02;;;13.10;99.90;;;;;;5032000;28;20398;-82
2022/05/26 02:32:58;;;;;;;60.78;17.88;;;13.10;99.90;;;;;;5026363;28;20080;-81
2022/05/26 02:35:31;;;;;;;74.95;19.83;;;13.10;99.90;;;;;;5031869;28;20094;-82
2022/05/26 02:38:03;;;;;;;57.03;17.05;;;13.10;99.90;;;;;;5015121;28;20053;-80
2022/05/26 02:40:30;;;;;;;57.47;18.30;;;13.20;99.90;;;;;;5031278;28;20049;-81
2022/05/26 02:43:01;;;;;;;44.20;14.68;;;13.20;99.90;;;;;;5031822;28;20407;-82
2022/05/26 02:45:34;;;;;;;;;;;13.30;99.90;;;;;;5032700;28;20116;-82
2022/05/26 02:48:06;;;;;;;45.72;13.70;;;13.20;99.90;;;;;;5032233;28;20409;-82
2022/05/26 02:50:45;;;;;;;52.50;15.55;;;13.20;99.90;;;;;;5031641;28;20419;-82
2022/05/26 02:53:27;;;;;;;51.38;15.63;;;13.20;99.90;;;;;;5031978;28;20092;-80
2022/05/26 02:56:01;;;;;;;39.65;14.55;;;13.40;99.90;;;;;;5032326;28;20073;-83
2022/05/26 02:58:46;;;;;;;33.60;14.07;;;13.30;99.90;;;;;;5031720;28;20041;-81
2022/05/26 03:01:21;;;;;;;47.88;15.35;;;13.30;99.90;;;;;;5032222;28;20045;-82
2022/05/26 03:04:08;;;;;;;54.08;16.85;;;13.30;99.90;;;;;;5031020;28;20041;-82
2022/05/26 03:07:12;;;;;;;54.20;15.80;;;13.30;99.90;;;;;;5032208;28;20080;-81
2022/05/26 03:09:40;;;;;;;56.05;15.48;;;13.30;99.90;;;;;;5013718;28;20100;-82
2022/05/26 03:12:26;;;;;;;61.65;17.27;;;13.30;99.90;;;;;;5013405;28;20062;-86
2022/05/26 03:14:52;;;;;;;57.47;16.67;;;13.30;99.90;;;;;;5013829;28;20486;-80
2022/05/26 03:17:18;;;;;;;61.40;15.32;;;13.30;99.90;;;;;;5029845;28;20041;-81
2022/05/26 03:19:44;;;;;;;50.65;15.68;;;13.20;99.90;;;;;;5029644;28;20503;-81
2022/05/26 03:22:09;;;;;;;60.22;15.55;;;13.20;99.90;;;;;;5013766;28;20053;-82
2022/05/26 03:24:35;;;;;;;53.38;12.90;;;13.20;99.90;;;;;;5013445;28;20053;-81
2022/05/26 03:27:01;;;;;;;56.95;14.70;;;13.20;99.90;;;;;;5013685;28;20076;-81
2022/05/26 03:29:26;;;;;;;59.90;15.55;;;13.30;99.90;;;;;;5028921;28;20049;-80
2022/05/26 03:31:52;;;;;;;54.53;13.77;;;13.20;99.90;;;;;;5029517;28;20049;-81
2022/05/26 03:42:30;;;;;;;55.53;12.98;;;13.20;99.90;;;;;;5029336;28;20434;-82
2022/05/26 03:44:57;;;;;;;61.42;11.82;;;13.20;99.90;;;;;;5031706;28;20045;-85
2022/05/26 03:47:23;;;;;;;55.75;11.75;;;13.10;99.90;;;;;;5031844;28;20046;-83
2022/05/26 03:49:49;;;;;;;51.05;11.98;;;13.20;99.90;;;;;;5031800;28;20068;-82
2022/05/26 03:52:15;;;;;;;43.58;9.35;;;13.20;99.90;;;;;;5032102;28;20056;-82
2022/05/26 03:54:41;;;;;;;57.45;10.55;;;13.20;99.90;;;;;;5032010;28;20042;-82
2022/05/26 03:57:06;;;;;;;38.63;8.10;;;13.20;99.90;;;;;;5030347;28;20072;-82
2022/05/26 03:59:33;;;;;;;43.38;8.13;;;13.10;99.90;;;;;;5031621;28;20049;-82
2022/05/26 04:01:59;;;;;;;41.40;7.63;;;13.10;99.90;;;;;;5031884;28;20183;-82
2022/05/26 04:04:26;;;;;;;37.85;7.38;;;13.20;99.90;;;;;;5030381;28;20128;-82
2022/05/26 04:06:51;;;;;;;38.10;6.05;;;13.10;99.90;;;;;;5032929;28;20128;-84
2022/05/26 04:09:17;;;;;;;41.35;6.78;;;13.10;99.90;;;;;;5035150;28;20147;-83
2022/05/26 04:11:43;;;;;;;35.20;6.18;;;13.00;99.90;;;;;;5035026;28;20041;-81
2022/05/26 04:14:09;;;;;;;32.38;5.53;;;13.00;99.90;;;;;;5034262;28;20475;-81
2022/05/26 04:16:35;;;;;;;35.05;5.95;;;12.90;99.90;;;;;;5030552;28;20046;-80
2022/05/26 04:19:01;;;;;;;40.67;6.22;;;12.90;99.90;;;;;;5015162;28;20057;-84
2022/05/26 04:21:27;;;;;;;24.42;4.82;;;12.90;99.90;;;;;;5025962;28;20057;-80
2022/05/26 04:23:52;;;;;;;16.85;3.78;;;12.80;99.90;;;;;;5034448;28;20061;-81
2022/05/26 04:26:18;;;;;;;20.98;4.30;;;12.60;99.90;;;;;;5017965;28;20080;-81
2022/05/26 04:28:44;;;;;;;20.48;3.58;;;12.60;99.90;;;;;;5035137;28;20099;-81
2022/05/26 04:31:09;;;;;;;14.43;3.95;;;12.50;99.90;;;;;;5034744;28;20046;-82
2022/05/26 04:33:36;;;;;;;18.65;4.07;;;12.40;99.90;;;;;;5034937;28;20099;-82
2022/05/26 04:36:04;;;;;;;18.92;3.70;;;12.40;99.90;;;;;;5032142;28;20046;-81
2022/05/26 04:38:31;;;;;;;16.02;3.00;;;12.40;99.90;;;;;;5035068;28;20060;-81
2022/05/26 04:41:03;;;;;;;18.05;2.83;;;12.30;99.90;;;;;;5034862;28;20464;-82
2022/05/26 04:43:30;;;;;;;18.77;3.22;;;12.30;99.90;;;;;;5034831;28;20057;-81
2022/05/26 04:45:57;;;;;;;19.27;3.53;;;12.30;99.90;;;;;;5033689;28;20056;-82
2022/05/26 04:48:23;;;;;;;14.32;2.85;;;12.20;99.90;;;;;;5030309;28;20054;-82
2022/05/26 04:50:50;;;;;;;11.05;2.17;;;12.30;99.90;;;;;;5000017;28;20132;-81
2022/05/26 04:53:17;;;;;;;15.25;3.25;;;12.40;99.90;;;;;;5030260;28;20124;-81
2022/05/26 04:55:42;;;;;;;18.55;3.10;;;12.30;99.90;;;;;;5034921;28;20060;-81
2022/05/26 04:58:08;;;;;;;14.70;2.38;;;12.40;99.90;;;;;;5034407;28;20041;-81
2022/05/26 05:00:34;;;;;;;13.40;2.50;;;12.60;99.90;;;;;;5034281;28;20046;-82
2022/05/26 05:03:00;;;;;;;13.27;2.63;;;12.60;99.90;;;;;;5033036;28;20042;-82
2022/05/26 05:05:25;;;;;;;17.13;3.22;;;12.70;99.90;;;;;;5034145;28;20411;-82
2022/05/26 05:07:51;;;;;;;13.73;2.60;;;12.90;99.90;;;;;;5033347;28;20411;-82
2022/05/26 05:10:17;;;;;;;21.85;3.30;;;13.00;99.90;;;;;;5033907;28;20041;-82
2022/05/26 05:12:43;;;;;;;13.25;3.03;;;13.10;99.90;;;;;;5034199;28;20041;-81
2022/05/26 05:15:16;;;;;;;15.70;3.15;;;13.10;99.90;;;;;;5033214;28;20073;-81
2022/05/26 05:17:41;;;;;;;12.48;2.80;;;13.20;99.90;;;;;;5031997;28;20048;-82
2022/05/26 05:20:08;;;;;;;9.20;2.63;;;13.30;99.90;;;;;;5034027;28;20057;-81
2022/05/26 05:23:05;;;;;;;12.38;2.25;;;13.20;99.90;;;;;;5033008;28;20050;-82
2022/05/26 05:25:39;;;;;;;10.43;2.13;;;13.20;99.90;;;;;;5015322;28;20124;-83
2022/05/26 05:28:11;;;;;;;12.68;2.20;;;13.30;99.90;;;;;;4990412;28;20043;-82
2022/05/26 05:31:07;;;;;;;11.63;2.22;;;13.40;99.90;;;;;;5046239;28;20057;-85
2022/05/26 05:33:39;;;;;;;17.27;2.65;;;13.40;99.90;;;;;;5025039;28;20450;-82
2022/05/26 05:36:07;;;;;;;15.43;2.40;;;13.40;99.90;;;;;;5027978;28;20618;-82
2022/05/26 05:38:35;;;;;;;14.90;2.67;;;13.40;99.90;;;;;;5023434;28;20064;-82
2022/05/26 05:41:04;;;;;;;15.32;3.00;;;13.40;99.90;;;;;;5018624;28;20049;-82
2022/05/26 05:43:31;;;;;;;18.75;2.65;;;13.40;99.90;;;;;;5024978;28;20137;-82
2022/05/26 05:45:57;;;;;;;13.60;2.10;;;13.50;99.90;;;;;;5016672;28;20048;-81
2022/05/26 05:48:23;;;;;;;12.50;2.17;;;13.60;99.90;;;;;;5006791;28;20526;-83
2022/05/26 05:50:49;;;;;;;10.05;1.85;;;13.60;99.90;;;;;;5028486;28;20166;-82
2022/05/26 05:53:17;;;;;;;7.35;1.35;;;13.60;99.90;;;;;;5015240;28;20046;-82
2022/05/26 05:55:43;;;;;;;7.03;1.58;;;13.70;99.90;;;;;;5015020;28;20507;-82
2022/05/26 05:58:10;;;;;;;6.93;1.50;;;13.70;99.90;;;;;;5006512;28;20056;-82
2022/05/26 06:00:36;;;;;;;5.68;1.25;;;13.70;99.90;;;;;;4994813;28;20081;-82
2022/05/26 06:03:02;;;;;;;9.52;1.50;;;13.60;99.90;;;;;;5031653;28;20091;-82
2022/05/26 06:05:28;;;;;;;8.98;1.40;;;13.50;99.90;;;;;;5031577;28;20179;-82
2022/05/26 06:07:53;;;;;;;8.43;1.13;;;13.40;99.90;;;;;;5032497;28;20057;-83
2022/05/26 06:10:19;;;;;;;8.63;1.67;;;13.40;99.90;;;;;;5031816;28;20064;-83
2022/05/26 06:12:46;;;;;;;12.93;1.50;;;13.40;99.90;;;;;;5032798;28;20049;-83
2022/05/26 06:15:12;;;;;;;10.20;1.70;;;13.50;99.90;;;;;;5025978;28;20049;-84
2022/05/26 06:17:38;;;;;;;7.85;1.40;;;13.60;99.90;;;;;;5031222;28;20128;-83
2022/05/26 06:20:06;;;;;;;11.02;1.42;;;13.80;99.90;;;;;;5032220;28;20049;-81
2022/05/26 06:22:35;;;;;;;9.13;1.27;;;14.00;99.90;;;;;;5031308;28;20096;-83
2022/05/26 06:25:02;;;;;;;7.25;1.40;;;14.20;99.90;;;;;;5032458;28;20061;-83
2022/05/26 06:30:14;;;;;;;5.25;1.00;;;14.40;99.90;;;;;;5013533;28;20066;-83
2022/05/26 06:38:15;;;;;;;7.38;1.05;;;14.50;99.90;;;;;;5032907;28;20173;-83
2022/05/26 06:40:40;;;;;;;7.50;1.30;;;14.60;99.90;;;;;;5031731;28;20140;-82
2022/05/26 06:43:06;;;;;;;6.53;0.88;;;14.70;99.90;;;;;;5030601;28;20429;-84
2022/05/26 06:45:32;;;;;;;6.10;1.15;;;14.60;99.90;;;;;;5030214;28;20128;-86
2022/05/26 06:47:58;;;;;;;5.65;1.13;;;14.70;99.90;;;;;;5030561;28;20072;-85
2022/05/26 06:50:23;;;;;;;5.38;1.05;;;14.70;99.90;;;;;;5027533;28;20487;-89
2022/05/26 06:52:50;;;;;;;5.60;1.20;;;14.60;99.90;;;;;;5032871;28;20042;-84
2022/05/26 06:55:16;;;;;;;5.25;1.13;;;14.70;99.90;;;;;;5033040;28;20045;-85
2022/05/26 06:57:42;;;;;;;5.25;1.00;;;14.60;99.90;;;;;;5031717;28;20403;-85
2022/05/26 07:00:09;;;;;;;4.10;0.80;;;14.60;99.90;;;;;;5033159;28;20396;-86
2022/05/26 07:02:35;;;;;;;6.43;1.10;;;14.70;99.90;;;;;;5032959;28;20049;-85
2022/05/26 07:05:01;;;;;;;4.40;1.25;;;14.70;99.90;;;;;;5031642;28;20107;-85
2022/05/26 07:07:27;;;;;;;6.85;1.05;;;14.80;99.90;;;;;;5031930;28;20042;-85
2022/05/26 07:09:56;;;;;;;4.65;0.82;;;14.90;99.90;;;;;;5033138;28;20050;-86
2022/05/26 07:12:23;;;;;;;4.88;0.90;;;15.00;99.90;;;;;;5032912;28;20049;-85
2022/05/26 07:14:49;;;;;;;3.55;0.85;;;15.10;99.90;;;;;;5032699;28;20080;-85
2022/05/26 07:17:15;;;;;;;4.38;0.95;;;15.40;99.90;;;;;;5029692;28;20057;-85
2022/05/26 07:19:42;;;;;;;4.63;0.70;;;15.50;99.90;;;;;;5032095;28;20553;-85
2022/05/26 07:22:07;;;;;;;2.53;0.52;;;15.70;99.90;;;;;;5031392;28;20402;-82
2022/05/26 07:24:37;;;;;;;3.95;0.73;;;15.70;99.90;;;;;;5031350;28;20049;-82
2022/05/26 07:27:02;;;;;;;4.03;0.73;;;16.10;99.90;;;;;;5030463;28;20045;-82
2022/05/26 07:29:29;;;;;;;8.98;1.15;;;16.60;99.90;;;;;;5031322;28;20049;-84
2022/05/26 07:31:55;;;;;;;6.82;0.68;;;17.20;99.90;;;;;;5032261;28;20483;-82
2022/05/26 07:34:21;;;;;;;4.20;0.88;;;17.50;99.90;;;;;;5000738;28;20057;-83
2022/05/26 07:42:19;;;;;;;7.88;1.25;;;17.60;99.90;;;;;;5034668;28;20758;-83
2022/05/26 07:44:48;;;;;;;3.47;0.95;;;17.50;99.90;;;;;;5034732;28;20453;-84
2022/05/26 07:47:14;;;;;;;4.95;0.60;;;17.40;99.90;;;;;;5036137;28;20408;-84
2022/05/26 07:49:43;;;;;;;4.00;0.85;;;17.30;99.90;;;;;;5035842;28;20079;-82
2022/05/26 07:52:11;;;;;;;4.60;0.88;;;17.30;99.90;;;;;;5035994;28;20140;-82
2022/05/26 07:54:38;;;;;;;5.38;0.88;;;17.30;99.90;;;;;;5035033;28;20056;-83
2022/05/26 07:57:05;;;;;;;3.00;0.65;;;17.10;99.90;;;;;;5035809;28;20040;-82
2022/05/26 07:59:31;;;;;;;7.03;0.82;;;16.90;99.90;;;;;;5034913;28;20045;-82
2022/05/26 08:01:58;;;;;;;3.65;0.80;;;16.80;99.90;;;;;;5036534;28;20052;-81
2022/05/26 08:04:23;;;;;;;5.45;0.75;;;16.90;99.90;;;;;;5036135;28;20115;-83
2022/05/26 08:06:50;;;;;;;3.92;0.75;;;17.50;99.90;;;;;;5019537;28;20061;-83
2022/05/26 08:09:18;;;;;;;3.95;0.85;;;18.60;99.90;;;;;;5036870;28;20037;-82
2022/05/26 08:11:45;;;;;;;5.15;0.93;;;19.70;99.90;;;;;;5037741;28;20041;-83
2022/05/26 08:14:11;;;;;;;6.80;1.20;;;20.50;99.90;;;;;;5037040;28;20108;-88
2022/05/26 08:16:37;;;;;;;3.38;0.73;;;21.00;99.90;;;;;;5035314;28;20124;-84
2022/05/26 08:19:03;;;;;;;4.22;1.02;;;21.40;99.90;;;;;;5032322;28;20392;-83
2022/05/26 08:21:30;;;;;;;2.22;0.65;;;21.60;99.90;;;;;;5034930;28;20088;-87
2022/05/26 08:23:56;;;;;;;2.90;0.80;;;21.70;99.10;;;;;;5035650;28;20052;-81
2022/05/26 08:26:21;;;;;;;2.60;0.80;;;21.60;98.60;;;;;;5035903;28;20124;-83
2022/05/26 08:28:49;;;;;;;6.05;1.00;;;21.50;98.80;;;;;;5035275;28;20550;-88
2022/05/26 08:31:15;;;;;;;2.38;0.60;;;21.70;98.40;;;;;;5034194;28;20045;-83
2022/05/26 08:33:41;;;;;;;4.47;0.70;;;22.20;96.10;;;;;;5017734;28;20443;-84
2022/05/26 08:36:10;;;;;;;3.38;0.57;;;22.70;86.80;;;;;;5034531;28;20172;-85
2022/05/26 08:38:36;;;;;;;4.40;0.85;;;23.20;81.10;;;;;;5035285;28;20068;-83
2022/05/26 08:41:03;;;;;;;4.55;0.80;;;23.40;82.00;;;;;;5035386;28;20505;-82
2022/05/26 08:43:41;;;;;;;3.22;0.80;;;23.70;75.10;;;;;;5034537;28;20053;-84
2022/05/26 08:46:09;;;;;;;3.47;0.88;;;23.90;74.30;;;;;;5036576;28;20063;-85
2022/05/26 08:49:06;;;;;;;3.65;0.80;;;23.90;68.80;;;;;;5036524;28;20052;-83
2022/05/26 08:51:51;;;;;;;3.15;0.70;;;24.20;68.00;;;;;;5033672;28;20491;-82
2022/05/26 08:54:20;;;;;;;3.08;0.82;;;24.70;70.60;;;;;;5035604;28;20050;-82
2022/05/26 08:56:47;;;;;;;4.93;0.75;;;25.00;66.40;;;;;;5035986;28;20497;-84
2022/05/26 08:59:15;;;;;;;3.42;0.73;;;25.20;63.60;;;;;;5018497;28;20388;-82
2022/05/26 09:01:42;;;;;;;3.63;0.70;;;25.60;60.70;;;;;;5035246;28;20085;-83
2022/05/26 09:04:10;;;;;;;4.68;0.80;;;25.70;58.70;;;;;;5035979;28;20046;-83
2022/05/26 09:12:55;;;;;;;7.07;0.80;;;25.90;57.20;;;;;;5034377;28;20076;-85
2022/05/26 09:15:03;;;;;;;2.33;0.75;;;25.10;58.50;;;;;;5034889;28;20115;-85
2022/05/26 09:17:30;;;;;;;5.63;1.20;;;23.60;65.00;;;;;;5033572;28;20140;-87
2022/05/26 09:19:57;;;;;;;3.47;0.82;;;22.40;72.00;;;;;;5034731;28;20057;-88
2022/05/26 09:22:47;;;;;;;5.07;0.80;;;21.40;80.80;;;;;;5034845;28;20438;-82
2022/05/26 09:25:32;;;;;;;4.00;0.80;;;20.70;91.00;;;;;;5034831;28;20042;-81
2022/05/26 09:27:58;;;;;;;4.00;0.63;;;20.20;92.40;;;;;;5033578;28;20057;-82
2022/05/26 09:30:27;;;;;;;6.38;0.77;;;20.00;96.50;;;;;;5034682;28;20047;-81
2022/05/26 09:32:53;;;;;;;4.25;0.70;;;19.90;98.80;;;;;;5034369;28;20091;-81
2022/05/26 09:35:19;;;;;;;3.33;0.60;;;20.40;96.50;;;;;;5034734;28;20089;-81
2022/05/26 09:37:50;;;;;;;5.60;1.00;;;21.10;93.20;;;;;;5033326;28;20454;-82
2022/05/26 09:40:22;;;;;;;3.70;0.90;;;22.20;84.60;;;;;;5034935;28;20064;-82
2022/05/26 09:42:59;;;;;;;3.90;0.80;;;22.70;78.30;;;;;;5037850;28;20053;-81
2022/05/26 09:45:25;;;;;;;4.32;0.80;;;22.60;79.10;;;;;;5034998;28;20053;-82
2022/05/26 09:47:58;;;;;;;2.75;0.82;;;22.80;78.70;;;;;;5017989;28;20045;-81
2022/05/26 09:50:33;;;;;;;4.00;0.80;;;22.60;81.20;;;;;;5018765;28;20053;-82
2022/05/26 09:53:00;;;;;;;3.00;0.80;;;22.50;73.00;;;;;;5017444;28;20159;-83
2022/05/26 09:55:47;;;;;;;3.85;0.82;;;22.40;73.50;;;;;;5035436;28;20045;-81
2022/05/26 09:58:13;;;;;;;3.78;0.80;;;23.50;67.40;;;;;;5013665;28;20049;-81
2022/05/26 10:00:47;;;;;;;3.83;0.73;;;24.10;62.50;;;;;;5026254;28;20429;-80
2022/05/26 10:03:32;;;;;;;2.60;0.75;;;23.70;65.40;;;;;;5032100;28;20049;-84
2022/05/26 10:06:29;;;;;;;2.90;0.80;;;23.30;65.80;;;;;;5033529;28;20048;-83
2022/05/26 10:09:15;;;;;;;4.15;0.85;;;22.70;70.20;;;;;;5034823;28;20076;-83
2022/05/26 10:12:04;;;;;;;4.95;0.90;;;21.90;74.80;;;;;;5034265;28;20490;-82
2022/05/26 10:14:36;;;;;;;3.63;0.68;;;21.10;85.90;;;;;;5032933;28;20064;-83
2022/05/26 10:17:20;;;;;;;2.63;0.68;;;20.40;92.20;;;;;;5038852;28;20085;-83
2022/05/26 10:20:07;;;;;;;2.90;0.60;;;19.80;95.20;;;;;;5033063;28;20057;-82
2022/05/26 10:22:57;;;;;;;4.38;1.00;;;19.30;96.50;;;;;;5033058;28;20068;-82
2022/05/26 10:25:26;;;;;;;3.70;0.93;;;18.90;99.90;;;;;;5034180;28;20446;-82
2022/05/26 10:28:12;;;;;;;4.03;0.80;;;18.70;99.90;;;;;;5033426;28;20495;-90
2022/05/26 10:31:01;;;;;;;3.30;0.98;;;18.60;99.90;;;;;;5050082;28;20049;-82
2022/05/26 10:33:54;;;;;;;4.72;1.10;;;19.60;99.90;;;;;;5033195;28;20042;-83
2022/05/26 10:36:31;;;;;;;4.55;1.20;;;20.50;96.30;;;;;;5033947;28;20041;-82
2022/05/26 10:39:22;;;;;;;4.78;1.33;;;20.50;95.30;;;;;;5016565;28;20045;-82
2022/05/26 10:42:14;;;;;;;;;;;21.00;93.90;;;;;;5033427;28;20049;-81
2022/05/26 10:45:04;;;;;;;4.88;1.08;;;21.90;86.50;;;;;;4999024;28;19929;-82
2022/05/26 10:47:48;;;;;;;6.60;1.35;;;22.90;81.30;;;;;;5016056;28;20064;-83
2022/05/26 10:50:37;;;;;;;5.97;1.00;;;24.10;70.20;;;;;;5000446;28;20609;-83
2022/05/26 10:53:14;;;;;;;6.40;1.20;;;25.60;62.80;;;;;;5015669;28;20049;-87
2022/05/26 10:56:14;;;;;;;5.72;1.33;;;26.70;59.20;;;;;;5035913;28;20050;-82
2022/05/26 10:59:07;;;;;;;3.22;0.93;;;26.60;57.00;;;;;;4968852;28;20089;-82
2022/05/26 11:01:58;;;;;;;3.55;0.98;;;26.30;55.40;;;;;;4961943;28;20573;-82
2022/05/26 11:04:27;;;;;;;6.75;1.20;;;26.30;55.00;;;;;;4993116;28;20050;-85
2022/05/26 11:06:58;;;;;;;4.00;1.00;;;26.10;56.00;;;;;;4940956;28;20086;-83
2022/05/26 11:09:46;;;;;;;4.43;0.85;;;25.70;57.00;;;;;;4973801;28;20061;-85
2022/05/26 11:12:28;;;;;;;7.63;1.25;;;25.90;54.30;;;;;;4973515;28;20059;-85
2022/05/26 11:18:11;;;;;;;4.28;1.17;;;25.30;55.40;;;;;;4973609;28;20086;-83
2022/05/26 11:20:53;;;;;;;7.25;1.10;;;24.70;57.10;;;;;;4941410;28;20394;-82
2022/05/26 11:23:21;;;;;;;3.70;1.02;;;24.90;62.60;;;;;;4972470;28;20560;-83
2022/05/26 11:25:58;;;;;;;3.92;1.05;;;25.70;59.00;;;;;;4957838;28;20416;-84
2022/05/26 11:28:33;;;;;;;6.60;0.80;;;25.90;54.80;;;;;;4972991;28;20082;-82
2022/05/26 11:36:58;;;;;;;5.03;1.05;;;25.40;57.00;;;;;;4974792;28;20057;-83
2022/05/26 11:39:34;;;;;;;4.00;0.88;;;26.30;54.30;;;;;;4991929;28;20416;-83
2022/05/26 11:42:13;;;;;;;3.40;0.70;;;27.20;52.30;;;;;;4993429;28;20141;-87
2022/05/26 11:44:53;;;;;;;2.83;0.75;;;27.50;50.90;;;;;;4975935;28;20054;-85
2022/05/26 11:47:34;;;;;;;4.97;1.00;;;27.40;49.90;;;;;;4976086;28;20337;-84
2022/05/26 11:50:20;;;;;;;3.42;0.93;;;26.50;51.00;;;;;;4975159;28;20297;-84
2022/05/26 11:52:45;;;;;;;4.80;1.23;;;26.20;53.10;;;;;;4957919;28;20511;-84
2022/05/26 11:55:31;;;;;;;4.28;0.98;;;26.30;55.20;;;;;;4975135;28;20061;-84
2022/05/26 11:58:14;;;;;;;4.63;1.10;;;27.60;50.10;;;;;;5025785;28;20046;-83
2022/05/26 12:00:43;;;;;;;4.43;1.23;;;28.20;49.90;;;;;;5031397;28;20486;-83
2022/05/26 12:03:30;;;;;;;5.97;1.10;;;27.90;49.70;;;;;;5032152;28;20427;-87
2022/05/26 12:06:16;;;;;;;5.22;0.90;;;27.60;49.90;;;;;;5011653;28;20065;-86
2022/05/26 12:08:55;;;;;;;3.70;0.90;;;27.60;48.50;;;;;;5011909;28;20120;-83
2022/05/26 12:12:04;;;;;;;6.38;1.10;;;27.80;48.60;;;;;;5011566;28;20120;-84
2022/05/26 12:14:50;;;;;;;5.82;1.30;;;27.60;48.40;;;;;;5007474;28;20408;-84
2022/05/26 12:17:30;;;;;;;8.20;1.30;;;26.90;50.20;;;;;;4990233;28;20137;-84
2022/05/26 12:20:11;;;;;;;4.78;1.00;;;27.20;50.80;;;;;;5006280;28;20047;-84
2022/05/26 12:22:59;;;;;;;9.23;1.17;;;28.00;49.40;;;;;;5006541;28;20051;-83
2022/05/26 12:25:29;;;;;;;5.80;0.90;;;28.50;48.10;;;;;;4974356;28;20089;-83
2022/05/26 12:27:58;;;;;;;4.68;1.20;;;28.50;47.30;;;;;;4993900;28;20065;-87
2022/05/26 12:30:41;;;;;;;6.47;1.40;;;28.10;48.00;;;;;;4994655;28;20049;-88
2022/05/26 12:33:37;;;;;;;5.72;1.05;;;27.90;49.00;;;;;;4994612;28;20057;-84
2022/05/26 12:36:28;;;;;;;6.18;1.20;;;27.60;48.50;;;;;;5023109;28;20045;-84
2022/05/26 12:38:53;;;;;;;;;;;27.20;48.50;;;;;;4998436;28;20432;-83
2022/05/26 12:41:38;;;;;;;5.00;0.85;;;26.80;48.40;;;;;;5014614;28;19922;-87
2022/05/26 12:44:25;;;;;;;5.32;1.15;;;26.70;50.50;;;;;;4999278;28;20061;-85
2022/05/26 12:47:05;;;;;;;5.88;1.10;;;26.40;50.30;;;;;;5015417;28;20403;-85
2022/05/26 12:49:58;;;;;;;5.35;1.20;;;26.40;50.50;;;;;;5014669;28;20081;-85
2022/05/26 12:52:34;;;;;;;4.88;1.10;;;26.60;49.90;;;;;;5014213;28;20089;-86
2022/05/26 12:55:20;;;;;;;8.57;1.50;;;26.60;50.40;;;;;;5016043;28;20395;-85
2022/05/26 12:58:08;;;;;;;3.22;0.93;;;26.40;49.40;;;;;;5014012;28;20179;-82
2022/05/26 13:00:37;;;;;;;6.03;1.20;;;25.90;50.80;;;;;;4998204;28;20112;-82
2022/05/26 13:03:04;;;;;;;5.35;1.10;;;26.10;51.80;;;;;;5015011;28;20050;-83
2022/05/26 13:05:37;;;;;;;5.93;1.20;;;26.40;50.90;;;;;;4996904;28;20065;-85
2022/05/26 13:08:05;;;;;;;4.15;1.33;;;26.50;49.50;;;;;;5034348;28;20068;-83
2022/05/26 13:10:37;;;;;;;4.30;1.15;;;25.80;50.50;;;;;;5000407;28;20457;-84
2022/05/26 13:13:17;;;;;;;6.82;1.33;;;25.40;52.50;;;;;;5034680;28;20099;-83
2022/05/26 13:15:43;;;;;;;7.65;1.20;;;25.60;54.00;;;;;;5033424;28;20048;-87
2022/05/26 13:18:20;;;;;;;6.65;1.63;;;25.80;53.50;;;;;;5032999;28;20219;-84
2022/05/26 13:20:47;;;;;;;6.53;1.10;;;25.50;52.90;;;;;;5034100;28;20061;-85
2022/05/26 13:23:30;;;;;;;6.95;1.40;;;25.10;54.80;;;;;;5034366;28;20115;-86
2022/05/26 13:25:59;;;;;;;7.28;1.40;;;24.70;55.50;;;;;;5034487;28;20049;-82
2022/05/26 13:28:33;;;;;;;8.20;1.10;;;24.00;57.40;;;;;;5049393;28;20091;-85
2022/05/26 13:33:48;;;;;;;7.90;1.48;;;23.40;59.20;;;;;;5032560;28;20123;-82
2022/05/26 13:36:37;;;;;;;5.72;1.10;;;23.40;60.40;;;;;;5034147;28;20422;-86
2022/05/26 13:39:22;;;;;;;5.72;1.10;;;23.40;59.50;;;;;;5033976;28;20042;-85
2022/05/26 13:41:51;;;;;;;11.15;1.27;;;23.40;60.20;;;;;;5034248;28;20119;-84
2022/05/26 13:44:38;;;;;;;6.72;1.38;;;23.60;59.50;;;;;;5035123;28;20063;-83
2022/05/26 13:47:08;;;;;;;5.38;1.15;;;23.60;59.40;;;;;;5017995;28;20060;-83
2022/05/26 13:49:43;;;;;;;6.90;1.25;;;23.50;59.70;;;;;;5033655;28;20049;-84